Time;durP1;ratioP1;P1;durP2;ratioP2;P2;SDS_P1;SDS_P2;PMS_P1;PMS_P2;Temp;Humidity;BMP_temperature;BMP_pressure;BME280_temperature;BME280_humidity;BME280_pressure;Samples;Min_cycle;Max_cycle;Signal;HPM_P1;HPM_P2
2021/04/07 00:01:52;;;;;;;9.48;5.07;;;2.40;99.90;;;;;;5015439;28;20018;-76
2021/04/07 00:04:18;;;;;;;5.15;2.95;;;2.40;99.90;;;;;;5024693;28;20038;-77
2021/04/07 00:06:44;;;;;;;8.25;5.05;;;2.30;99.90;;;;;;5023688;28;20516;-75
2021/04/07 00:09:11;;;;;;;10.77;6.47;;;2.30;99.90;;;;;;5018588;28;20099;-76
2021/04/07 00:11:37;;;;;;;9.93;6.25;;;2.30;99.90;;;;;;5017348;28;20104;-76
2021/04/07 00:14:07;;;;;;;7.18;3.70;;;2.30;99.90;;;;;;5015335;28;20034;-78
2021/04/07 00:16:32;;;;;;;4.05;2.85;;;2.40;99.90;;;;;;5010579;28;20129;-76
2021/04/07 00:18:58;;;;;;;3.70;3.00;;;2.40;99.90;;;;;;5020615;28;20029;-77
2021/04/07 00:21:24;;;;;;;4.80;2.55;;;2.50;99.90;;;;;;5024142;28;20025;-76
2021/04/07 00:23:50;;;;;;;2.40;2.20;;;2.50;99.90;;;;;;5006152;28;20520;-74
2021/04/07 00:26:16;;;;;;;3.65;2.78;;;2.50;99.90;;;;;;5015508;28;20033;-73
2021/04/07 00:28:42;;;;;;;3.63;2.25;;;2.30;99.90;;;;;;5014703;28;20033;-75
2021/04/07 00:31:07;;;;;;;4.10;2.58;;;2.20;99.90;;;;;;5011181;28;20026;-75
2021/04/07 00:33:33;;;;;;;3.95;2.30;;;2.20;99.90;;;;;;5013010;28;20080;-76
2021/04/07 00:35:59;;;;;;;2.50;2.30;;;2.20;99.90;;;;;;5015035;28;20046;-74
2021/04/07 00:38:25;;;;;;;2.30;2.03;;;2.30;99.90;;;;;;5022681;28;20034;-74
2021/04/07 00:40:50;;;;;;;3.20;1.80;;;2.40;99.90;;;;;;5006943;28;20026;-74
2021/04/07 00:43:16;;;;;;;2.55;2.17;;;2.60;99.90;;;;;;5018787;28;20068;-76
2021/04/07 00:45:42;;;;;;;2.65;2.17;;;2.80;99.90;;;;;;5008609;28;20057;-74
2021/04/07 00:48:08;;;;;;;3.72;2.03;;;2.80;99.90;;;;;;5017289;28;20075;-74
2021/04/07 00:50:34;;;;;;;2.17;1.70;;;2.90;99.90;;;;;;5019314;28;20631;-75
2021/04/07 00:53:00;;;;;;;2.00;1.77;;;2.90;99.90;;;;;;5010490;28;20140;-75
2021/04/07 00:55:29;;;;;;;6.07;1.73;;;3.00;99.90;;;;;;5013027;28;20034;-75
2021/04/07 00:57:56;;;;;;;8.13;1.48;;;3.00;99.90;;;;;;5011234;28;20052;-74
2021/04/07 01:00:22;;;;;;;4.15;1.65;;;2.90;99.90;;;;;;5023481;28;20395;-75
2021/04/07 01:02:53;;;;;;;1.92;1.75;;;2.90;99.90;;;;;;4999621;28;20511;-75
2021/04/07 01:05:19;;;;;;;4.40;1.88;;;2.90;99.90;;;;;;5019735;28;20025;-75
2021/04/07 01:07:45;;;;;;;2.72;1.40;;;2.70;99.90;;;;;;5021513;28;20038;-75
2021/04/07 01:10:11;;;;;;;4.07;2.10;;;2.70;99.90;;;;;;5015079;28;20399;-75
2021/04/07 01:12:39;;;;;;;2.20;1.15;;;2.70;99.90;;;;;;5018797;28;20468;-75
2021/04/07 01:15:06;;;;;;;3.00;1.55;;;2.70;99.90;;;;;;5020610;28;20056;-75
2021/04/07 01:17:32;;;;;;;5.80;1.65;;;2.60;99.90;;;;;;5010346;28;20029;-75
2021/04/07 01:19:58;;;;;;;2.97;1.67;;;2.50;99.90;;;;;;5018161;28;20039;-76
2021/04/07 01:22:25;;;;;;;5.22;2.03;;;2.60;99.90;;;;;;5028737;28;20488;-75
2021/04/07 01:24:51;;;;;;;1.63;1.20;;;2.60;99.90;;;;;;5010014;28;20030;-75
2021/04/07 01:27:17;;;;;;;2.60;1.65;;;2.60;99.90;;;;;;5021932;28;20084;-75
2021/04/07 01:29:44;;;;;;;2.47;1.50;;;2.70;99.90;;;;;;5013282;28;20029;-75
2021/04/07 01:32:10;;;;;;;4.30;1.05;;;2.70;99.90;;;;;;5019020;28;20124;-75
2021/04/07 01:34:42;;;;;;;5.57;1.63;;;2.70;99.90;;;;;;5013349;28;20057;-75
2021/04/07 01:37:11;;;;;;;2.75;1.58;;;2.70;99.90;;;;;;5028920;28;20018;-76
2021/04/07 01:39:36;;;;;;;3.20;1.92;;;2.60;99.90;;;;;;5021847;28;20503;-75
2021/04/07 01:42:03;;;;;;;2.58;1.70;;;2.60;99.90;;;;;;5007054;28;20030;-74
2021/04/07 01:44:29;;;;;;;6.32;1.95;;;2.50;99.90;;;;;;5021933;28;20653;-76
2021/04/07 01:46:59;;;;;;;3.85;1.35;;;2.50;99.90;;;;;;5013631;28;20034;-76
2021/04/07 01:49:26;;;;;;;2.83;1.55;;;2.50;99.90;;;;;;5014196;28;20389;-75
2021/04/07 01:51:52;;;;;;;2.40;1.73;;;2.60;99.90;;;;;;5019744;28;20022;-75
2021/04/07 01:54:18;;;;;;;2.85;1.83;;;2.60;99.90;;;;;;5020040;28;20079;-75
2021/04/07 01:56:56;;;;;;;3.92;1.90;;;2.70;99.90;;;;;;5007532;28;20030;-75
2021/04/07 01:59:29;;;;;;;2.08;1.63;;;2.60;99.90;;;;;;5022470;28;20024;-75
2021/04/07 02:01:56;;;;;;;2.17;1.50;;;2.50;99.90;;;;;;5019025;28;20507;-76
2021/04/07 02:04:22;;;;;;;2.70;1.83;;;2.50;99.90;;;;;;5019326;28;20034;-77
2021/04/07 02:06:49;;;;;;;2.92;1.33;;;2.40;99.90;;;;;;5019396;28;20515;-73
2021/04/07 02:09:17;;;;;;;3.42;1.65;;;2.50;99.90;;;;;;5014045;28;20430;-73
2021/04/07 02:11:47;;;;;;;4.07;2.75;;;2.50;99.90;;;;;;5023489;28;20026;-76
2021/04/07 02:14:24;;;;;;;2.20;1.25;;;2.60;99.90;;;;;;5028420;28;20021;-76
2021/04/07 02:16:54;;;;;;;5.45;2.20;;;2.50;99.90;;;;;;5015289;28;20049;-76
2021/04/07 02:19:24;;;;;;;2.65;1.85;;;2.50;99.90;;;;;;5016045;28;20022;-77
2021/04/07 02:22:02;;;;;;;6.22;1.92;;;2.60;99.90;;;;;;5014776;28;20022;-75
2021/04/07 02:24:28;;;;;;;3.85;2.10;;;2.50;99.90;;;;;;5014674;28;20033;-76
2021/04/07 02:26:54;;;;;;;4.85;1.35;;;2.50;99.90;;;;;;5027015;28;20021;-75
2021/04/07 02:29:20;;;;;;;4.20;2.15;;;2.40;99.90;;;;;;5022062;28;20053;-74
2021/04/07 02:31:46;;;;;;;2.83;1.80;;;2.40;99.90;;;;;;5007697;28;20088;-75
2021/04/07 02:34:12;;;;;;;2.08;1.83;;;2.30;99.90;;;;;;5011452;28;20026;-74
2021/04/07 02:36:38;;;;;;;3.05;1.90;;;2.30;99.90;;;;;;5012219;28;20026;-75
2021/04/07 02:39:05;;;;;;;2.22;1.70;;;2.30;99.90;;;;;;5022131;28;20499;-76
2021/04/07 02:41:32;;;;;;;3.63;1.90;;;2.30;99.90;;;;;;5015987;28;20021;-77
2021/04/07 02:43:58;;;;;;;2.70;1.95;;;2.30;99.90;;;;;;5019119;28;20033;-77
2021/04/07 02:46:24;;;;;;;3.72;2.22;;;2.20;99.90;;;;;;5011802;28;20022;-74
2021/04/07 02:48:49;;;;;;;3.05;1.83;;;2.30;99.90;;;;;;5006551;28;20088;-75
2021/04/07 02:51:15;;;;;;;7.50;1.55;;;2.30;99.90;;;;;;5008907;28;20100;-75
2021/04/07 02:53:41;;;;;;;4.68;3.60;;;2.20;99.90;;;;;;5028351;28;20057;-76
2021/04/07 02:56:07;;;;;;;2.45;1.38;;;2.20;99.90;;;;;;5015686;28;20095;-75
2021/04/07 02:58:32;;;;;;;1.42;1.30;;;2.10;99.90;;;;;;5018997;28;20036;-74
2021/04/07 03:00:59;;;;;;;5.47;2.10;;;2.00;99.90;;;;;;5017682;28;20034;-74
2021/04/07 03:03:24;;;;;;;5.70;1.60;;;2.10;99.90;;;;;;5021984;28;20025;-74
2021/04/07 03:05:50;;;;;;;2.15;1.30;;;2.10;99.90;;;;;;5013011;28;20029;-75
2021/04/07 03:08:16;;;;;;;2.75;1.88;;;2.10;99.90;;;;;;5011744;28;20030;-74
2021/04/07 03:10:42;;;;;;;1.98;1.20;;;2.10;99.90;;;;;;5016367;28;20057;-74
2021/04/07 03:13:08;;;;;;;2.90;1.85;;;2.10;99.90;;;;;;5019145;28;20454;-76
2021/04/07 03:15:33;;;;;;;1.48;1.38;;;2.10;99.90;;;;;;5002056;28;20123;-76
2021/04/07 03:17:59;;;;;;;7.00;1.73;;;2.00;99.90;;;;;;5019870;28;20068;-75
2021/04/07 03:20:25;;;;;;;4.78;2.00;;;2.00;99.90;;;;;;5013772;28;20029;-75
2021/04/07 03:22:51;;;;;;;2.67;1.90;;;2.10;99.90;;;;;;5025529;28;20479;-75
2021/04/07 03:25:16;;;;;;;2.50;1.60;;;2.10;99.90;;;;;;5023056;28;20036;-75
2021/04/07 03:27:42;;;;;;;2.15;1.63;;;2.10;99.90;;;;;;5016710;28;20049;-76
2021/04/07 03:30:08;;;;;;;2.85;1.77;;;1.90;99.90;;;;;;5016897;28;20060;-77
2021/04/07 03:32:34;;;;;;;4.95;2.05;;;1.90;99.90;;;;;;5011582;28;20673;-75
2021/04/07 03:35:00;;;;;;;3.53;2.15;;;1.90;99.90;;;;;;5011295;28;20030;-74
2021/04/07 03:37:25;;;;;;;3.08;1.77;;;1.90;99.90;;;;;;5015184;28;20072;-74
2021/04/07 03:39:51;;;;;;;6.28;2.83;;;1.90;99.90;;;;;;5010132;28;20068;-74
2021/04/07 03:42:17;;;;;;;4.05;2.00;;;1.90;99.90;;;;;;5015087;28;20373;-75
2021/04/07 03:44:43;;;;;;;2.13;1.63;;;1.90;99.90;;;;;;5012950;28;20034;-75
2021/04/07 03:47:09;;;;;;;4.28;2.15;;;1.90;99.90;;;;;;5016760;28;20057;-75
2021/04/07 03:49:34;;;;;;;2.35;2.03;;;1.80;99.90;;;;;;5014316;28;20037;-76
2021/04/07 03:52:00;;;;;;;2.92;2.10;;;1.80;99.90;;;;;;5020774;28;20387;-75
2021/04/07 03:54:26;;;;;;;4.25;2.30;;;1.80;99.90;;;;;;5024373;28;20044;-75
2021/04/07 03:56:54;;;;;;;3.13;1.88;;;1.80;99.90;;;;;;5009931;28;20110;-75
2021/04/07 03:59:19;;;;;;;3.08;2.53;;;1.70;99.90;;;;;;5014123;28;20036;-75
2021/04/07 04:01:45;;;;;;;6.18;2.70;;;1.70;99.90;;;;;;5014834;28;20030;-74
2021/04/07 04:04:11;;;;;;;29.25;10.10;;;1.70;99.90;;;;;;4996732;28;20025;-75
2021/04/07 04:06:38;;;;;;;26.02;8.20;;;1.70;99.90;;;;;;5023542;28;20021;-75
2021/04/07 04:09:04;;;;;;;13.75;4.78;;;1.90;99.90;;;;;;5013100;28;20382;-77
2021/04/07 04:11:30;;;;;;;6.30;3.78;;;1.90;99.90;;;;;;5019371;28;20091;-75
2021/04/07 04:13:56;;;;;;;14.15;4.25;;;1.80;99.90;;;;;;5017193;28;20078;-74
2021/04/07 04:16:22;;;;;;;2.28;1.75;;;1.90;99.90;;;;;;5014570;28;20033;-75
2021/04/07 04:18:49;;;;;;;5.03;2.90;;;1.80;99.90;;;;;;4999947;28;20026;-76
2021/04/07 04:21:15;;;;;;;8.02;2.92;;;1.70;99.90;;;;;;5016345;28;20025;-75
2021/04/07 04:23:41;;;;;;;4.25;2.20;;;1.70;99.90;;;;;;5016053;28;20026;-74
2021/04/07 04:26:07;;;;;;;3.40;2.50;;;1.60;99.90;;;;;;5015092;28;20033;-74
2021/04/07 04:28:33;;;;;;;3.50;1.95;;;1.50;99.90;;;;;;5017911;28;20030;-75
2021/04/07 04:30:58;;;;;;;2.08;1.85;;;1.60;99.90;;;;;;5018437;28;20034;-76
2021/04/07 04:33:24;;;;;;;7.07;2.45;;;1.50;99.90;;;;;;5015446;28;20026;-75
2021/04/07 04:35:50;;;;;;;4.75;2.40;;;1.50;99.90;;;;;;5025307;28;20033;-76
2021/04/07 04:38:16;;;;;;;6.70;1.67;;;1.40;99.90;;;;;;5019116;28;20038;-74
2021/04/07 04:40:42;;;;;;;3.72;1.50;;;1.40;99.90;;;;;;5027914;28;20057;-75
2021/04/07 04:43:08;;;;;;;3.35;2.00;;;1.40;99.90;;;;;;5029940;28;20068;-76
2021/04/07 04:45:36;;;;;;;4.68;2.00;;;1.30;99.90;;;;;;5020225;28;20033;-77
2021/04/07 04:48:02;;;;;;;2.33;2.13;;;1.30;99.90;;;;;;5024662;28;20504;-76
2021/04/07 04:50:28;;;;;;;5.93;2.45;;;1.40;99.90;;;;;;5002073;28;20030;-76
2021/04/07 04:52:54;;;;;;;7.60;3.08;;;1.40;99.90;;;;;;5020588;28;20113;-75
2021/04/07 04:55:19;;;;;;;7.05;2.92;;;1.50;99.90;;;;;;5016919;28;20021;-75
2021/04/07 04:57:45;;;;;;;6.95;3.75;;;1.50;99.90;;;;;;5024224;28;20025;-74
2021/04/07 05:00:12;;;;;;;6.25;1.73;;;1.70;99.90;;;;;;5012712;28;20492;-75
2021/04/07 05:02:38;;;;;;;3.92;2.15;;;1.70;99.90;;;;;;5016625;28;20065;-75
2021/04/07 05:05:05;;;;;;;3.47;2.40;;;1.60;99.90;;;;;;5024741;28;20027;-75
2021/04/07 05:07:30;;;;;;;2.55;2.03;;;1.70;99.90;;;;;;5023148;28;20065;-74
2021/04/07 05:09:56;;;;;;;5.60;2.33;;;1.70;99.90;;;;;;5019264;28;20029;-74
2021/04/07 05:12:22;;;;;;;5.95;2.42;;;1.70;99.90;;;;;;5005071;28;20531;-74
2021/04/07 05:14:48;;;;;;;3.80;2.42;;;1.80;99.90;;;;;;5011507;28;20036;-76
2021/04/07 05:17:14;;;;;;;6.78;2.95;;;1.80;99.90;;;;;;5012627;28;20088;-75
2021/04/07 05:19:40;;;;;;;5.80;2.92;;;1.80;99.90;;;;;;5021099;28;20470;-76
2021/04/07 05:22:08;;;;;;;6.82;4.50;;;1.90;99.90;;;;;;5006318;28;20021;-75
2021/04/07 05:24:34;;;;;;;2.83;1.80;;;2.00;99.90;;;;;;5013827;28;20021;-75
2021/04/07 05:27:01;;;;;;;7.28;2.95;;;2.10;99.90;;;;;;5014524;28;20034;-76
2021/04/07 05:29:26;;;;;;;6.47;2.80;;;2.10;99.90;;;;;;5011684;28;20022;-76
2021/04/07 05:31:53;;;;;;;5.85;2.28;;;2.20;99.90;;;;;;5021356;28;20093;-74
2021/04/07 05:34:18;;;;;;;3.55;2.45;;;2.20;99.90;;;;;;5021913;28;20376;-75
2021/04/07 05:36:44;;;;;;;2.88;1.92;;;2.30;99.90;;;;;;5020590;28;20034;-74
2021/04/07 05:39:10;;;;;;;7.80;3.10;;;2.40;99.90;;;;;;5019055;28;20093;-75
2021/04/07 05:41:36;;;;;;;5.18;2.53;;;2.40;99.90;;;;;;5016181;28;20029;-75
2021/04/07 05:44:02;;;;;;;7.43;2.60;;;2.40;99.90;;;;;;5008506;28;20029;-76
2021/04/07 05:46:28;;;;;;;10.85;2.88;;;2.40;99.90;;;;;;5016224;28;20040;-75
2021/04/07 05:48:54;;;;;;;5.60;2.90;;;2.40;99.90;;;;;;5020983;28;20116;-75
2021/04/07 05:51:19;;;;;;;7.30;2.50;;;2.60;99.90;;;;;;5013204;28;20465;-75
2021/04/07 05:53:45;;;;;;;10.10;2.75;;;2.70;99.90;;;;;;5008391;28;20564;-74
2021/04/07 05:56:11;;;;;;;6.97;2.75;;;2.90;99.90;;;;;;5012899;28;20446;-75
2021/04/07 05:58:36;;;;;;;4.28;2.67;;;2.90;99.90;;;;;;5025638;28;20038;-75
2021/04/07 06:01:02;;;;;;;8.77;2.85;;;2.90;99.90;;;;;;5013127;28;20065;-73
2021/04/07 06:03:28;;;;;;;5.53;3.03;;;3.00;99.90;;;;;;5015436;28;20136;-75
2021/04/07 06:05:54;;;;;;;7.32;2.63;;;3.10;99.90;;;;;;5022794;28;20029;-74
2021/04/07 06:08:20;;;;;;;4.63;2.60;;;3.20;99.90;;;;;;5006109;28;20021;-75
2021/04/07 06:10:47;;;;;;;6.50;3.30;;;3.30;99.90;;;;;;5013082;28;20112;-75
2021/04/07 06:13:17;;;;;;;21.27;3.53;;;3.50;99.90;;;;;;5014748;28;20050;-75
2021/04/07 06:15:44;;;;;;;6.25;3.10;;;3.80;99.90;;;;;;5012031;28;20384;-77
2021/04/07 06:18:12;;;;;;;9.30;4.22;;;3.90;99.90;;;;;;5013978;28;20061;-75
2021/04/07 06:20:44;;;;;;;9.27;3.50;;;3.80;99.90;;;;;;5015595;28;20250;-73
2021/04/07 06:23:11;;;;;;;6.32;3.28;;;3.80;99.90;;;;;;5016644;28;20022;-75
2021/04/07 06:25:38;;;;;;;5.95;3.40;;;3.80;99.90;;;;;;5009457;28;20041;-75
2021/04/07 06:28:06;;;;;;;4.45;3.85;;;3.90;99.90;;;;;;5006513;28;20391;-75
2021/04/07 06:30:45;;;;;;;6.22;4.15;;;4.00;99.90;;;;;;5011572;28;20033;-76
2021/04/07 06:33:14;;;;;;;4.93;2.70;;;4.00;99.90;;;;;;5014028;28;20022;-75
2021/04/07 06:35:41;;;;;;;3.00;2.47;;;4.10;99.90;;;;;;5006188;28;20030;-76
2021/04/07 06:38:07;;;;;;;3.70;2.85;;;4.20;99.90;;;;;;5019577;28;20113;-71
2021/04/07 06:40:33;;;;;;;6.57;3.58;;;4.40;99.90;;;;;;5014690;28;20492;-72
2021/04/07 06:43:01;;;;;;;10.13;4.40;;;4.50;99.90;;;;;;5011427;28;20041;-71
2021/04/07 06:45:28;;;;;;;11.82;2.90;;;4.70;99.90;;;;;;5015222;28;20033;-73
2021/04/07 06:47:55;;;;;;;6.95;3.03;;;4.60;99.90;;;;;;5010223;28;20092;-71
2021/04/07 06:50:25;;;;;;;6.10;3.22;;;4.70;99.90;;;;;;5007320;28;20030;-71
2021/04/07 06:52:52;;;;;;;6.80;3.20;;;4.80;99.90;;;;;;5005651;28;20112;-72
2021/04/07 06:55:19;;;;;;;14.02;4.40;;;4.90;99.90;;;;;;5003690;28;20495;-71
2021/04/07 06:57:47;;;;;;;10.82;4.90;;;5.10;99.90;;;;;;5017945;28;20034;-72
2021/04/07 07:00:14;;;;;;;10.10;3.55;;;5.40;99.90;;;;;;5010429;28;20167;-73
2021/04/07 07:02:41;;;;;;;7.95;3.70;;;5.80;99.90;;;;;;5019966;28;20022;-72
2021/04/07 07:05:07;;;;;;;6.63;3.22;;;6.00;99.90;;;;;;4998928;28;20029;-72
2021/04/07 07:07:33;;;;;;;7.82;3.25;;;6.20;99.90;;;;;;5025533;28;20056;-72
2021/04/07 07:09:59;;;;;;;6.43;3.47;;;6.40;99.90;;;;;;5009652;28;20492;-75
2021/04/07 07:12:25;;;;;;;11.77;3.63;;;6.50;99.90;;;;;;5016428;28;20387;-73
2021/04/07 07:14:52;;;;;;;8.45;4.35;;;6.70;99.90;;;;;;5008861;28;20025;-75
2021/04/07 07:17:27;;;;;;;7.15;3.08;;;6.70;99.90;;;;;;5014920;28;20034;-72
2021/04/07 07:19:53;;;;;;;14.82;3.53;;;6.90;99.90;;;;;;5024059;28;20499;-74
2021/04/07 07:22:25;;;;;;;7.22;2.47;;;7.00;99.90;;;;;;5012465;28;20030;-70
2021/04/07 07:24:52;;;;;;;5.55;3.13;;;7.30;99.90;;;;;;5010918;28;20387;-70
2021/04/07 07:27:18;;;;;;;13.32;3.78;;;7.60;99.90;;;;;;5020914;28;20566;-71
2021/04/07 07:29:54;;;;;;;4.65;3.03;;;7.70;99.90;;;;;;5010010;28;20045;-70
2021/04/07 07:32:20;;;;;;;7.32;3.13;;;7.80;99.90;;;;;;5005245;28;20033;-72
2021/04/07 07:34:46;;;;;;;9.10;4.20;;;7.80;99.90;;;;;;5018612;28;20451;-72
2021/04/07 07:37:23;;;;;;;7.97;3.28;;;7.90;99.90;;;;;;5017480;28;20076;-67
2021/04/07 07:39:49;;;;;;;19.38;4.25;;;7.80;99.90;;;;;;5018911;28;20038;-67
2021/04/07 07:42:16;;;;;;;6.53;1.83;;;9.30;99.90;;;;;;5019848;28;20026;-68
2021/04/07 07:44:42;;;;;;;7.40;2.22;;;10.80;99.90;;;;;;5021911;28;20025;-69
2021/04/07 07:47:22;;;;;;;4.75;1.95;;;11.30;99.90;;;;;;5011249;28;20400;-67
2021/04/07 07:49:59;;;;;;;6.68;2.25;;;10.90;99.90;;;;;;5012940;28;20044;-70
2021/04/07 07:52:35;;;;;;;7.18;2.40;;;10.60;99.90;;;;;;5009043;28;20428;-73
2021/04/07 07:55:13;;;;;;;5.50;2.88;;;10.00;99.90;;;;;;5016259;28;20034;-71
2021/04/07 07:57:39;;;;;;;6.43;2.15;;;9.70;99.90;;;;;;5004527;28;20039;-69
2021/04/07 08:00:11;;;;;;;4.97;2.58;;;9.50;99.90;;;;;;5010992;28;20048;-71
2021/04/07 08:02:38;;;;;;;4.00;2.30;;;9.40;99.90;;;;;;5019747;28;20028;-71
2021/04/07 08:05:17;;;;;;;3.83;2.10;;;9.30;99.90;;;;;;5013157;28;20022;-72
2021/04/07 08:07:43;;;;;;;9.40;3.25;;;9.30;99.90;;;;;;5018175;28;20029;-71
2021/04/07 08:10:11;;;;;;;10.55;4.75;;;9.30;99.90;;;;;;5016638;28;20052;-70
2021/04/07 08:12:39;;;;;;;6.93;3.00;;;9.20;99.90;;;;;;5008999;28;20060;-69
2021/04/07 08:15:06;;;;;;;16.17;4.05;;;9.10;99.90;;;;;;5008725;28;20022;-71
2021/04/07 08:17:32;;;;;;;6.88;2.90;;;9.10;99.90;;;;;;5014918;28;20045;-70
2021/04/07 08:20:01;;;;;;;4.50;3.03;;;9.10;99.90;;;;;;5014878;28;20026;-71
2021/04/07 08:22:28;;;;;;;10.98;3.65;;;8.80;99.90;;;;;;5022130;28;20025;-72
2021/04/07 08:24:56;;;;;;;9.70;3.88;;;8.70;99.90;;;;;;4994671;28;20025;-73
2021/04/07 08:27:25;;;;;;;12.77;3.30;;;8.70;99.90;;;;;;5009638;28;20496;-73
2021/04/07 08:29:51;;;;;;;7.13;3.63;;;8.70;99.90;;;;;;5018103;28;20071;-71
2021/04/07 08:32:21;;;;;;;7.95;3.83;;;8.50;99.90;;;;;;5017404;28;20116;-72
2021/04/07 08:34:48;;;;;;;8.20;3.45;;;8.50;99.90;;;;;;5017146;28;20059;-71
2021/04/07 08:37:27;;;;;;;11.18;4.60;;;8.50;99.90;;;;;;5015213;28;20116;-71
2021/04/07 08:39:54;;;;;;;10.43;4.43;;;8.60;99.90;;;;;;5012715;28;20380;-71
2021/04/07 08:42:22;;;;;;;15.25;4.45;;;8.60;99.90;;;;;;5018324;28;20080;-72
2021/04/07 08:44:49;;;;;;;4.63;3.95;;;8.60;99.90;;;;;;5011294;28;20058;-73
2021/04/07 08:48:06;;;;;;;12.73;4.53;;;8.50;99.90;;;;;;5011447;28;20025;-71
2021/04/07 08:50:14;;;;;;;6.90;3.83;;;8.60;99.90;;;;;;5011132;28;20038;-72
2021/04/07 08:52:43;;;;;;;8.45;3.85;;;8.50;99.90;;;;;;5021170;28;20032;-70
2021/04/07 08:55:24;;;;;;;10.40;3.65;;;8.60;99.90;;;;;;5015283;28;20096;-71
2021/04/07 08:58:02;;;;;;;7.93;3.95;;;8.60;99.90;;;;;;5012365;28;20352;-72
2021/04/07 09:00:30;;;;;;;9.48;3.40;;;8.50;99.90;;;;;;5002646;28;20064;-71
2021/04/07 09:02:58;;;;;;;11.13;3.95;;;8.60;99.90;;;;;;5019295;28;20379;-72
2021/04/07 09:05:36;;;;;;;8.73;4.40;;;8.60;99.90;;;;;;5003777;28;20028;-71
2021/04/07 09:08:03;;;;;;;5.07;3.33;;;8.50;99.90;;;;;;5014097;28;20026;-71
2021/04/07 09:10:58;;;;;;;12.63;4.40;;;8.50;99.90;;;;;;5019551;28;20029;-71
2021/04/07 09:13:33;;;;;;;5.45;3.25;;;8.60;99.90;;;;;;5003403;28;20502;-71
2021/04/07 09:16:03;;;;;;;6.68;3.80;;;8.60;99.90;;;;;;5006498;28;20375;-70
2021/04/07 09:18:37;;;;;;;7.90;2.95;;;8.50;99.90;;;;;;5016324;28;20029;-70
2021/04/07 09:21:09;;;;;;;7.30;4.18;;;8.60;99.90;;;;;;5017217;28;20072;-71
2021/04/07 09:23:36;;;;;;;5.40;3.40;;;8.50;99.90;;;;;;5021795;28;20018;-72
2021/04/07 09:26:14;;;;;;;11.95;4.88;;;8.40;99.90;;;;;;5012659;28;20026;-73
2021/04/07 09:28:46;;;;;;;8.82;3.63;;;8.30;99.90;;;;;;5019712;28;20113;-72
2021/04/07 09:31:19;;;;;;;9.57;3.03;;;8.30;99.90;;;;;;5016063;28;20026;-72
2021/04/07 09:33:49;;;;;;;3.92;3.00;;;8.20;99.90;;;;;;5019027;28;20025;-71
2021/04/07 09:36:26;;;;;;;9.07;3.95;;;8.30;99.90;;;;;;5019932;28;20461;-72
2021/04/07 09:38:55;;;;;;;11.43;3.92;;;8.30;99.90;;;;;;5014429;28;20033;-71
2021/04/07 09:41:26;;;;;;;9.07;4.05;;;8.30;99.90;;;;;;5028000;28;20057;-71
2021/04/07 09:43:55;;;;;;;6.53;4.30;;;8.30;99.90;;;;;;5006436;28;20042;-69
2021/04/07 09:46:22;;;;;;;4.68;3.70;;;8.40;99.90;;;;;;5010119;28;20680;-71
2021/04/07 09:48:50;;;;;;;12.68;3.70;;;8.40;99.90;;;;;;5009081;28;20033;-71
2021/04/07 09:51:17;;;;;;;6.78;3.85;;;8.40;99.90;;;;;;5007149;28;20076;-70
2021/04/07 09:53:43;;;;;;;6.70;3.30;;;8.40;99.90;;;;;;5006569;28;20041;-71
2021/04/07 09:56:09;;;;;;;7.90;2.92;;;8.40;99.90;;;;;;5006042;28;20038;-71
2021/04/07 09:58:46;;;;;;;5.05;2.75;;;8.30;99.90;;;;;;5006967;28;20026;-70
2021/04/07 10:01:16;;;;;;;8.30;2.95;;;8.30;99.90;;;;;;5004773;28;20412;-70
2021/04/07 10:03:55;;;;;;;6.38;2.60;;;8.50;99.90;;;;;;5006637;28;20022;-70
2021/04/07 10:06:23;;;;;;;9.80;2.58;;;8.60;99.90;;;;;;5006953;28;20037;-71
2021/04/07 10:09:09;;;;;;;5.07;3.22;;;8.70;99.90;;;;;;5005164;28;20033;-71
2021/04/07 10:11:41;;;;;;;3.47;3.17;;;8.90;99.90;;;;;;5004413;28;20026;-70
2021/04/07 10:14:09;;;;;;;8.95;3.20;;;9.20;99.90;;;;;;5019154;28;20129;-70
2021/04/07 10:16:39;;;;;;;11.18;3.03;;;9.30;99.90;;;;;;5000290;28;20044;-71
2021/04/07 10:19:07;;;;;;;5.32;1.58;;;9.30;99.90;;;;;;5021282;28;20109;-72
2021/04/07 10:21:33;;;;;;;3.97;2.10;;;9.40;99.90;;;;;;5021568;28;20080;-71
2021/04/07 10:24:00;;;;;;;7.15;2.47;;;9.40;99.90;;;;;;5014382;28;20034;-71
2021/04/07 10:26:25;;;;;;;4.35;2.85;;;9.50;99.90;;;;;;5019087;28;20055;-71
2021/04/07 10:29:25;;;;;;;5.15;2.55;;;9.40;99.90;;;;;;5022602;28;20026;-74
2021/04/07 10:31:56;;;;;;;3.13;2.22;;;9.40;99.90;;;;;;5024211;28;20041;-75
2021/04/07 10:34:35;;;;;;;5.30;2.55;;;9.30;99.90;;;;;;5014372;28;20098;-73
2021/04/07 10:37:03;;;;;;;10.38;2.67;;;9.10;99.90;;;;;;5018933;28;20026;-71
2021/04/07 10:39:37;;;;;;;4.43;2.78;;;8.80;99.90;;;;;;5020858;28;20038;-71
2021/04/07 10:42:03;;;;;;;8.77;3.03;;;8.60;99.90;;;;;;5021399;28;20037;-69
2021/04/07 10:44:31;;;;;;;5.65;2.75;;;8.50;99.90;;;;;;5014426;28;20476;-69
2021/04/07 10:46:58;;;;;;;6.10;2.65;;;8.30;99.90;;;;;;5009281;28;20026;-70
2021/04/07 10:49:24;;;;;;;3.58;2.47;;;8.10;99.90;;;;;;5011327;28;20052;-70
2021/04/07 10:52:02;;;;;;;3.83;3.47;;;8.00;99.90;;;;;;5006175;28;20053;-72
2021/04/07 10:54:29;;;;;;;3.97;2.17;;;7.90;99.90;;;;;;5015712;28;20022;-71
2021/04/07 10:56:59;;;;;;;7.60;2.50;;;7.70;99.90;;;;;;5007872;28;20084;-76
2021/04/07 10:59:31;;;;;;;3.63;2.55;;;7.70;99.90;;;;;;5015035;28;20024;-72
2021/04/07 11:01:59;;;;;;;5.55;2.40;;;7.70;99.90;;;;;;5011941;28;20431;-72
2021/04/07 11:04:32;;;;;;;3.10;2.10;;;8.00;99.90;;;;;;5005417;28;20112;-70
2021/04/07 11:06:58;;;;;;;3.97;2.15;;;8.40;99.90;;;;;;5019826;28;20100;-72
2021/04/07 11:09:33;;;;;;;9.80;2.70;;;8.60;99.90;;;;;;5013042;28;20104;-71
2021/04/07 11:12:03;;;;;;;5.22;2.95;;;8.90;99.90;;;;;;5019647;28;20388;-72
2021/04/07 11:14:29;;;;;;;3.17;2.05;;;9.10;99.90;;;;;;5008603;28;20065;-70
2021/04/07 11:16:59;;;;;;;4.40;2.40;;;9.20;99.90;;;;;;5022134;28;20030;-69
2021/04/07 11:19:36;;;;;;;1.80;1.40;;;9.10;99.90;;;;;;5007536;28;20129;-71
2021/04/07 11:22:03;;;;;;;5.22;1.67;;;9.10;99.90;;;;;;5016367;28;20037;-71
2021/04/07 11:24:29;;;;;;;3.88;1.77;;;9.20;99.90;;;;;;5017978;28;20036;-70
2021/04/07 11:26:55;;;;;;;1.92;1.40;;;9.40;99.90;;;;;;5019045;28;20022;-71
2021/04/07 11:29:21;;;;;;;3.83;2.03;;;9.60;99.90;;;;;;4998696;28;20076;-70
2021/04/07 11:31:50;;;;;;;4.90;1.90;;;9.70;99.90;;;;;;5019100;28;20041;-72
2021/04/07 11:34:20;;;;;;;7.55;2.10;;;9.80;99.90;;;;;;5011897;28;20052;-69
2021/04/07 11:37:14;;;;;;;4.97;1.20;;;9.90;99.90;;;;;;5018482;28;20017;-70
2021/04/07 11:42:08;;;;;;;5.93;2.20;;;9.80;99.90;;;;;;5019086;28;20022;-70
2021/04/07 11:44:35;;;;;;;6.32;1.92;;;9.60;99.90;;;;;;5000005;28;20434;-73
2021/04/07 11:47:02;;;;;;;4.53;1.00;;;9.50;99.90;;;;;;5023366;28;20494;-71
2021/04/07 11:49:34;;;;;;;20.95;2.38;;;9.50;99.90;;;;;;5012794;28;20079;-71
2021/04/07 11:51:59;;;;;;;2.57;1.10;;;9.60;99.90;;;;;;5012922;28;20022;-71
2021/04/07 11:54:25;;;;;;;6.32;1.92;;;9.80;99.90;;;;;;5004260;28;20027;-71
2021/04/07 11:56:51;;;;;;;8.40;1.98;;;10.10;99.90;;;;;;5013858;28;20037;-71
2021/04/07 11:59:19;;;;;;;4.07;1.88;;;10.20;99.90;;;;;;5020066;28;20030;-72
2021/04/07 12:01:49;;;;;;;8.05;1.83;;;10.20;99.90;;;;;;5013553;28;20372;-71
2021/04/07 12:04:16;;;;;;;6.25;2.00;;;10.40;99.90;;;;;;5007727;28;20026;-73
2021/04/07 12:06:42;;;;;;;3.25;1.90;;;10.20;99.90;;;;;;5008588;28;20029;-72
2021/04/07 12:09:08;;;;;;;1.98;1.77;;;10.10;99.90;;;;;;5010912;28;20376;-71
2021/04/07 12:11:34;;;;;;;4.50;1.70;;;10.00;99.90;;;;;;5010174;28;20029;-74
2021/04/07 12:14:01;;;;;;;8.45;1.88;;;9.70;99.90;;;;;;5006896;28;20033;-73
2021/04/07 12:16:27;;;;;;;3.35;1.42;;;9.60;99.90;;;;;;5010460;28;20172;-70
2021/04/07 12:18:53;;;;;;;2.97;1.40;;;9.40;99.90;;;;;;5010187;28;20018;-74
2021/04/07 12:21:19;;;;;;;4.55;1.30;;;9.40;99.90;;;;;;5015316;28;20033;-73
2021/04/07 12:23:46;;;;;;;2.03;1.40;;;9.30;99.90;;;;;;5010698;28;20030;-71
2021/04/07 12:26:14;;;;;;;6.38;1.73;;;9.10;99.90;;;;;;5009960;28;20053;-71
2021/04/07 12:28:41;;;;;;;7.95;1.65;;;9.10;99.90;;;;;;4993090;28;20544;-73
2021/04/07 12:31:07;;;;;;;3.33;1.45;;;9.00;99.90;;;;;;5007807;28;20109;-72
2021/04/07 12:33:33;;;;;;;3.08;1.50;;;8.90;99.90;;;;;;5017044;28;20114;-73
2021/04/07 12:36:00;;;;;;;2.22;1.63;;;8.90;99.90;;;;;;5009887;28;20109;-74
2021/04/07 12:38:28;;;;;;;6.95;1.52;;;8.80;99.90;;;;;;5009220;28;20018;-72
2021/04/07 12:40:57;;;;;;;4.45;1.90;;;8.80;99.90;;;;;;5009814;28;20061;-74
2021/04/07 12:43:23;;;;;;;3.40;2.53;;;8.70;99.90;;;;;;5010564;28;20026;-76
2021/04/07 12:45:49;;;;;;;5.18;1.90;;;8.60;99.90;;;;;;5013357;28;20030;-72
2021/04/07 12:48:15;;;;;;;3.33;1.83;;;8.60;99.90;;;;;;5010469;28;20088;-72
2021/04/07 12:50:42;;;;;;;7.25;1.80;;;8.60;99.90;;;;;;5009308;28;20034;-71
2021/04/07 12:53:08;;;;;;;11.82;1.95;;;8.60;99.90;;;;;;5012668;28;20427;-70
2021/04/07 12:55:34;;;;;;;7.57;2.92;;;8.40;99.90;;;;;;5006873;28;20121;-71
2021/04/07 12:58:00;;;;;;;9.80;2.50;;;8.30;99.90;;;;;;5014486;28;20092;-72
2021/04/07 13:00:30;;;;;;;4.65;2.45;;;8.30;99.90;;;;;;5014609;28;20386;-72
2021/04/07 13:02:56;;;;;;;14.95;2.45;;;8.10;99.90;;;;;;5016815;28;20033;-72